createdAt,value
2018-12-27T00:00:15.750Z,5.312
2018-12-27T00:03:15.479Z,5.513
2018-12-27T00:06:15.203Z,6.975
2018-12-27T00:09:15.895Z,1.700
2018-12-27T00:12:15.451Z,5.850
2018-12-27T00:15:14.896Z,5.375
2018-12-27T00:18:15.682Z,3.225
2018-12-27T00:21:15.250Z,1.875
2018-12-27T00:24:15.864Z,2.538
2018-12-27T00:27:15.569Z,2.788
2018-12-27T00:30:15.187Z,3.525
2018-12-27T00:33:15.703Z,2.288
2018-12-27T00:36:15.262Z,2.913
2018-12-27T00:39:15.032Z,2.400
2018-12-27T00:42:15.593Z,1.888
2018-12-27T00:45:15.196Z,1.262
2018-12-27T00:48:14.861Z,1.775
2018-12-27T00:51:15.710Z,2.788
2018-12-27T00:54:15.227Z,1.600
2018-12-27T00:57:15.808Z,2.925
2018-12-27T01:00:15.394Z,2.237
2018-12-27T01:03:15.137Z,1.887
2018-12-27T01:06:15.686Z,2.250
2018-12-27T01:09:15.296Z,2.050
2018-12-27T01:12:15.926Z,1.925
2018-12-27T01:15:15.385Z,2.600
2018-12-27T01:18:15.104Z,0.962
2018-12-27T01:21:15.745Z,3.913
2018-12-27T01:24:15.313Z,2.737
2018-12-27T01:27:15.858Z,4.513
2018-12-27T01:30:15.489Z,2.138
2018-12-27T01:33:18.736Z,2.413
2018-12-27T01:36:15.740Z,3.350
2018-12-27T01:39:15.219Z,3.263
2018-12-27T01:42:15.683Z,5.450
2018-12-27T01:45:15.293Z,1.762
2018-12-27T01:48:15.939Z,3.938
2018-12-27T01:51:15.469Z,4.050
2018-12-27T01:54:15.085Z,2.450
2018-12-27T01:57:15.549Z,3.312
2018-12-27T02:00:15.024Z,2.162
2018-12-27T02:03:15.713Z,3.412
2018-12-27T02:06:15.203Z,3.125
2018-12-27T02:09:15.643Z,2.162
2018-12-27T02:12:15.206Z,5.000
2018-12-27T02:15:15.054Z,4.975
2018-12-27T02:18:15.685Z,5.500
2018-12-27T02:21:15.527Z,2.900
2018-12-27T02:24:15.011Z,2.688
2018-12-27T02:27:15.611Z,3.050
2018-12-27T02:30:15.022Z,3.500
2018-12-27T02:33:15.670Z,4.812
2018-12-27T02:36:15.207Z,2.200
2018-12-27T02:39:15.802Z,3.350
2018-12-27T02:42:15.482Z,7.100
2018-12-27T02:45:15.190Z,4.575
2018-12-27T02:48:15.765Z,4.550
2018-12-27T02:51:15.438Z,2.288
2018-12-27T02:54:15.021Z,1.713
2018-12-27T02:57:15.774Z,3.062
2018-12-27T03:00:15.429Z,4.400
2018-12-27T03:03:14.905Z,3.188
2018-12-27T03:06:15.447Z,4.412
2018-12-27T03:09:15.126Z,0.425
2018-12-27T03:12:15.586Z,5.312
2018-12-27T03:15:15.202Z,6.237
2018-12-27T03:18:15.756Z,5.225
2018-12-27T03:21:15.359Z,5.225
2018-12-27T03:24:15.238Z,7.062
2018-12-27T03:27:15.935Z,1.125
2018-12-27T03:30:15.546Z,4.125
2018-12-27T03:33:15.156Z,3.325
2018-12-27T03:36:15.673Z,2.300
2018-12-27T03:39:15.254Z,3.875
2018-12-27T03:42:15.773Z,6.825
2018-12-27T03:45:15.533Z,2.650
2018-12-27T03:48:15.115Z,3.550
2018-12-27T03:51:15.770Z,5.338
2018-12-27T03:54:15.274Z,3.663
2018-12-27T03:57:15.963Z,2.762
2018-12-27T04:00:15.821Z,3.400
2018-12-27T04:03:15.470Z,3.138
2018-12-27T04:06:15.007Z,2.750
2018-12-27T04:09:15.434Z,4.838
2018-12-27T04:12:15.194Z,6.750
2018-12-27T04:15:15.861Z,3.437
2018-12-27T04:18:15.497Z,6.888
2018-12-27T04:21:15.252Z,7.487
2018-12-27T04:24:15.310Z,2.575
2018-12-27T04:27:15.030Z,2.325
2018-12-27T04:30:15.665Z,2.850
2018-12-27T04:33:15.596Z,5.850
2018-12-27T04:36:15.103Z,6.388
2018-12-27T04:39:15.144Z,1.512
2018-12-27T04:42:15.803Z,9.500
2018-12-27T04:45:15.809Z,4.037
2018-12-27T04:48:15.283Z,3.525
2018-12-27T04:51:14.937Z,2.000
2018-12-27T04:54:15.526Z,2.312
2018-12-27T04:57:15.215Z,2.213
2018-12-27T05:00:15.827Z,2.362
2018-12-27T05:03:15.436Z,3.487
2018-12-27T05:06:15.179Z,2.337
2018-12-27T05:09:15.821Z,3.112
2018-12-27T05:12:15.628Z,3.163
2018-12-27T05:15:15.239Z,2.650
2018-12-27T05:18:15.898Z,2.600
2018-12-27T05:21:15.495Z,5.825
2018-12-27T05:24:14.953Z,2.150
2018-12-27T05:27:14.979Z,1.763
2018-12-27T05:30:15.789Z,3.275
2018-12-27T05:33:15.388Z,4.750
2018-12-27T05:36:15.021Z,4.500
2018-12-27T05:39:15.734Z,5.175
2018-12-27T05:42:15.252Z,5.025
2018-12-27T05:45:15.736Z,3.900
2018-12-27T05:48:15.483Z,4.025
2018-12-27T05:51:15.336Z,1.350
2018-12-27T05:54:15.087Z,4.013
2018-12-27T05:57:15.962Z,1.725
2018-12-27T06:00:15.787Z,5.762
2018-12-27T06:03:15.359Z,3.762
2018-12-27T06:06:15.070Z,3.200
2018-12-27T06:09:15.965Z,3.925
2018-12-27T06:12:15.530Z,5.325
2018-12-27T06:15:15.233Z,2.188
2018-12-27T06:18:14.914Z,7.525
2018-12-27T06:21:15.703Z,2.487
2018-12-27T06:24:15.407Z,2.662
2018-12-27T06:27:15.261Z,6.925
2018-12-27T06:30:15.061Z,5.750
2018-12-27T06:33:15.941Z,1.913
2018-12-27T06:36:15.515Z,3.000
2018-12-27T06:39:15.340Z,1.875
2018-12-27T06:42:15.065Z,4.925
2018-12-27T06:45:16.027Z,5.688
2018-12-27T06:48:15.647Z,7.450
2018-12-27T06:51:15.492Z,4.450
2018-12-27T06:54:15.101Z,3.325
2018-12-27T06:57:15.656Z,1.938
2018-12-27T07:00:15.309Z,3.487
2018-12-27T07:03:15.227Z,1.763
2018-12-27T07:06:15.841Z,3.613
2018-12-27T07:09:15.601Z,5.550
2018-12-27T07:12:15.326Z,2.712
2018-12-27T07:15:14.990Z,1.312
2018-12-27T07:18:15.746Z,7.838
2018-12-27T07:21:15.639Z,2.513
2018-12-27T07:24:15.133Z,3.187
2018-12-27T07:27:15.763Z,2.538
2018-12-27T07:30:15.418Z,3.087
2018-12-27T07:33:15.097Z,2.075
2018-12-27T07:36:15.827Z,2.400
2018-12-27T07:39:15.651Z,2.775
2018-12-27T07:42:15.268Z,1.950
2018-12-27T07:45:15.068Z,6.575
2018-12-27T07:48:15.846Z,6.913
2018-12-27T07:51:15.589Z,4.138
2018-12-27T07:54:15.347Z,3.188
2018-12-27T07:57:15.005Z,7.100
2018-12-27T08:00:15.619Z,6.338
2018-12-27T08:03:15.510Z,2.600
2018-12-27T08:06:15.155Z,3.638
2018-12-27T08:09:15.790Z,3.050
2018-12-27T08:12:15.407Z,1.750
2018-12-27T08:15:15.084Z,2.450
2018-12-27T08:18:15.085Z,6.625
2018-12-27T08:21:15.935Z,3.300
2018-12-27T08:24:15.770Z,4.863
2018-12-27T08:27:15.476Z,2.550
2018-12-27T08:30:15.280Z,2.350
2018-12-27T08:33:15.147Z,2.025
2018-12-27T08:36:15.730Z,2.850
2018-12-27T08:39:15.418Z,2.188
2018-12-27T08:42:15.135Z,1.688
2018-12-27T08:45:14.914Z,3.450
2018-12-27T08:48:15.794Z,2.025
2018-12-27T08:51:15.601Z,1.337
2018-12-27T08:54:15.203Z,4.938
2018-12-27T08:57:15.806Z,3.750
2018-12-27T09:00:15.325Z,1.588
2018-12-27T09:03:15.157Z,5.112
2018-12-27T09:06:15.970Z,2.087
2018-12-27T09:09:15.818Z,4.638
2018-12-27T09:12:15.893Z,2.550
2018-12-27T09:15:15.162Z,3.300
2018-12-27T09:18:15.427Z,3.675
2018-12-27T09:21:18.214Z,7.938
2018-12-27T09:24:15.925Z,2.425
2018-12-27T09:27:15.921Z,1.150
2018-12-27T09:30:15.741Z,2.213
2018-12-27T09:33:15.623Z,2.862
2018-12-27T09:36:15.397Z,1.238
2018-12-27T09:39:15.006Z,0.525
2018-12-27T09:42:15.518Z,1.188
2018-12-27T09:45:15.214Z,11.288
2018-12-27T09:48:15.110Z,2.250
2018-12-27T09:51:15.788Z,7.637
2018-12-27T09:54:15.892Z,5.200
2018-12-27T09:57:15.464Z,4.487
2018-12-27T10:00:15.887Z,5.188
2018-12-27T10:03:15.377Z,7.575
2018-12-27T10:06:15.086Z,4.900
2018-12-27T10:09:15.738Z,4.000
2018-12-27T10:12:15.412Z,2.475
2018-12-27T10:15:15.223Z,4.400
2018-12-27T10:18:15.980Z,3.663
2018-12-27T10:21:16.037Z,3.075
2018-12-27T10:24:15.327Z,4.375
2018-12-27T10:27:15.702Z,3.438
2018-12-27T10:42:16.435Z,8.175
2018-12-27T10:45:15.265Z,3.475
2018-12-27T10:48:14.924Z,5.475
2018-12-27T10:51:15.524Z,9.275
2018-12-27T10:54:14.941Z,5.213
2018-12-27T10:57:15.660Z,3.950
2018-12-27T11:00:15.317Z,4.950
2018-12-27T11:03:15.817Z,3.800
2018-12-27T11:06:15.297Z,3.925
2018-12-27T11:09:15.019Z,6.600
2018-12-27T11:12:15.757Z,5.537
2018-12-27T11:15:15.277Z,3.100
2018-12-27T11:18:15.358Z,5.912
2018-12-27T11:21:15.135Z,7.188
2018-12-27T11:24:14.934Z,1.962
2018-12-27T11:27:15.619Z,6.000
2018-12-27T11:30:15.257Z,6.412
2018-12-27T11:33:15.774Z,5.500
2018-12-27T11:36:17.368Z,5.450
2018-12-27T11:39:15.319Z,9.650
2018-12-27T11:42:14.827Z,3.400
2018-12-27T11:45:15.452Z,4.287
2018-12-27T11:48:15.369Z,6.550
2018-12-27T11:51:14.935Z,2.388
2018-12-27T11:54:15.552Z,3.138
2018-12-27T11:57:15.166Z,2.400
2018-12-27T12:00:15.830Z,4.588
2018-12-27T12:03:15.422Z,2.250
2018-12-27T12:06:14.864Z,3.375
2018-12-27T12:09:15.508Z,1.837
2018-12-27T12:12:15.103Z,3.825
2018-12-27T12:15:15.541Z,5.250
2018-12-27T12:18:15.228Z,2.150
2018-12-27T12:21:16.001Z,4.950
2018-12-27T12:24:15.678Z,0.850
2018-12-27T12:27:15.271Z,5.375
2018-12-27T12:30:15.191Z,6.900
2018-12-27T12:33:15.118Z,2.675
2018-12-27T12:36:15.721Z,3.425
2018-12-27T12:39:15.385Z,3.837
2018-12-27T12:42:15.953Z,2.700
2018-12-27T12:45:15.684Z,7.438
2018-12-27T12:48:15.225Z,1.450
2018-12-27T12:51:15.791Z,3.237
2018-12-27T12:54:15.560Z,2.288
2018-12-27T12:57:15.195Z,3.700
2018-12-27T13:00:15.828Z,2.212
2018-12-27T13:03:15.458Z,5.062
2018-12-27T13:06:18.208Z,3.688
2018-12-27T13:09:14.896Z,4.675
2018-12-27T13:12:15.479Z,4.700
2018-12-27T13:15:15.017Z,3.125
2018-12-27T13:18:15.655Z,2.663
2018-12-27T13:21:15.297Z,2.225
2018-12-27T13:24:15.045Z,4.688
2018-12-27T13:27:15.657Z,4.438
2018-12-27T13:30:15.258Z,2.587
2018-12-27T13:33:15.803Z,11.012
2018-12-27T13:36:15.339Z,6.138
2018-12-27T13:39:15.895Z,2.050
2018-12-27T13:42:15.538Z,4.312
2018-12-27T13:45:15.410Z,4.850
2018-12-27T13:48:14.949Z,4.100
2018-12-27T13:51:15.742Z,4.475
2018-12-27T13:54:15.442Z,3.275
2018-12-27T13:57:15.459Z,5.987
2018-12-27T14:00:15.094Z,1.975
2018-12-27T14:03:15.720Z,3.362
2018-12-27T14:06:15.402Z,3.987
2018-12-27T14:09:15.393Z,2.413
2018-12-27T14:12:15.479Z,3.438
2018-12-27T14:15:15.119Z,2.662
2018-12-27T14:18:15.670Z,4.263
2018-12-27T14:21:16.165Z,1.312
2018-12-27T14:24:15.802Z,1.663
2018-12-27T14:27:15.471Z,2.875
2018-12-27T14:30:15.045Z,4.987
2018-12-27T14:33:15.777Z,3.087
2018-12-27T14:36:15.384Z,1.962
2018-12-27T14:39:15.110Z,3.050
2018-12-27T14:42:15.737Z,7.600
2018-12-27T14:45:15.345Z,5.525
2018-12-27T14:48:15.059Z,4.625
2018-12-27T14:51:15.744Z,3.237
2018-12-27T14:54:15.436Z,4.287
2018-12-27T14:57:15.521Z,2.350
2018-12-27T15:00:15.611Z,1.400
2018-12-27T15:03:15.209Z,3.688
2018-12-27T15:06:15.784Z,3.625
2018-12-27T15:09:15.607Z,1.562
2018-12-27T15:12:15.506Z,4.475
2018-12-27T15:15:15.155Z,3.850
2018-12-27T15:18:15.830Z,3.487
2018-12-27T15:21:15.739Z,5.537
2018-12-27T15:24:15.505Z,5.363
2018-12-27T15:27:15.266Z,4.125
2018-12-27T15:30:14.944Z,2.862
2018-12-27T15:33:15.816Z,1.737
2018-12-27T15:36:15.419Z,2.538
2018-12-27T15:39:15.046Z,6.562
2018-12-27T15:42:15.711Z,4.650
2018-12-27T15:45:15.325Z,6.425
2018-12-27T15:48:15.852Z,2.538
2018-12-27T15:51:15.587Z,2.788
2018-12-27T15:54:15.212Z,2.600
2018-12-27T15:57:14.989Z,4.800
2018-12-27T16:00:15.634Z,3.575
2018-12-27T16:03:15.215Z,2.812
2018-12-27T16:06:15.949Z,8.987
2018-12-27T16:09:15.712Z,9.500
2018-12-27T16:12:15.324Z,6.713
2018-12-27T16:15:15.876Z,4.775
2018-12-27T16:18:15.699Z,13.512
2018-12-27T16:21:15.447Z,8.125
2018-12-27T16:24:15.356Z,9.688
2018-12-27T16:27:15.184Z,7.250
2018-12-27T16:30:15.891Z,6.137
2018-12-27T16:33:15.659Z,6.963
2018-12-27T16:36:15.390Z,7.963
2018-12-27T16:39:15.055Z,13.425
2018-12-27T16:42:21.758Z,15.413
2018-12-27T16:45:16.925Z,7.925
2018-12-27T16:48:15.511Z,3.562
2018-12-27T16:51:15.174Z,4.712
2018-12-27T16:54:15.774Z,5.312
2018-12-27T16:57:19.629Z,4.475
2018-12-27T17:00:15.565Z,4.550
2018-12-27T17:03:15.513Z,2.650
2018-12-27T17:06:15.673Z,4.725
2018-12-27T17:09:15.835Z,14.450
2018-12-27T17:12:15.527Z,9.188
2018-12-27T17:15:15.288Z,9.400
2018-12-27T17:18:14.924Z,14.787
2018-12-27T17:21:15.571Z,10.475
2018-12-27T17:24:15.232Z,16.462
2018-12-27T17:27:15.092Z,14.875
2018-12-27T17:30:15.339Z,12.250
2018-12-27T17:33:15.047Z,8.300
2018-12-27T17:36:15.645Z,6.088
2018-12-27T17:39:15.282Z,12.675
2018-12-27T17:42:15.858Z,14.975
2018-12-27T17:45:15.363Z,9.012
2018-12-27T17:48:15.788Z,10.537
2018-12-27T17:51:15.381Z,7.875
2018-12-27T17:54:15.882Z,11.938
2018-12-27T17:57:15.602Z,15.188
2018-12-27T18:00:15.230Z,11.025
2018-12-27T18:03:15.915Z,5.850
2018-12-27T18:06:15.668Z,11.925
2018-12-27T18:09:15.625Z,18.400
2018-12-27T18:12:15.630Z,9.837
2018-12-27T18:15:15.567Z,14.475
2018-12-27T18:18:15.434Z,15.988
2018-12-27T18:21:15.352Z,10.562
2018-12-27T18:24:15.264Z,5.300
2018-12-27T18:27:15.261Z,9.713
2018-12-27T18:30:15.337Z,8.912
2018-12-27T18:33:15.300Z,10.463
2018-12-27T18:36:15.207Z,7.725
2018-12-27T18:39:15.106Z,5.650
2018-12-27T18:42:16.057Z,11.975
2018-12-27T18:45:15.961Z,10.450
2018-12-27T18:48:15.854Z,12.775
2018-12-27T18:51:15.676Z,12.625
2018-12-27T18:54:15.446Z,6.863
2018-12-27T18:57:15.347Z,5.488
2018-12-27T19:00:15.065Z,4.375
2018-12-27T19:03:15.822Z,3.337
2018-12-27T19:06:15.494Z,6.412
2018-12-27T19:09:15.211Z,10.613
2018-12-27T19:12:15.256Z,8.537
2018-12-27T19:15:15.170Z,9.012
2018-12-27T19:18:15.498Z,9.163
2018-12-27T19:21:15.301Z,7.200
2018-12-27T19:24:15.986Z,5.525
2018-12-27T19:27:15.883Z,7.612
2018-12-27T19:30:15.568Z,8.062
2018-12-27T19:33:15.836Z,16.113
2018-12-27T19:36:15.382Z,9.963
2018-12-27T19:39:15.154Z,7.338
2018-12-27T19:42:15.911Z,14.450
2018-12-27T19:45:15.961Z,5.875
2018-12-27T19:48:15.510Z,11.500
2018-12-27T19:51:15.411Z,29.300
2018-12-27T19:54:15.033Z,14.662
2018-12-27T19:57:20.973Z,11.125
2018-12-27T20:00:15.713Z,8.625
2018-12-27T20:03:15.502Z,16.375
2018-12-27T20:06:15.186Z,9.062
2018-12-27T20:09:15.222Z,9.075
2018-12-27T20:12:16.012Z,10.450
2018-12-27T20:15:15.830Z,11.100
2018-12-27T20:18:15.764Z,8.575
2018-12-27T20:21:15.572Z,6.350
2018-12-27T20:24:15.343Z,7.475
2018-12-27T20:27:15.280Z,13.337
2018-12-27T20:30:15.093Z,11.762
2018-12-27T20:33:15.394Z,5.062
2018-12-27T20:36:15.223Z,9.925
2018-12-27T20:39:15.226Z,3.087
2018-12-27T20:42:15.025Z,9.287
2018-12-27T20:45:14.976Z,6.463
2018-12-27T20:48:15.889Z,7.787
2018-12-27T20:51:15.622Z,7.275
2018-12-27T20:54:17.072Z,10.050
2018-12-27T20:57:16.051Z,11.037
2018-12-27T21:00:15.851Z,8.762
2018-12-27T21:03:15.820Z,9.062
2018-12-27T21:06:15.606Z,24.575
2018-12-27T21:09:15.371Z,20.175
2018-12-27T21:12:15.259Z,9.938
2018-12-27T21:15:15.103Z,10.550
2018-12-27T21:18:15.873Z,10.100
2018-12-27T21:21:16.353Z,11.913
2018-12-27T21:24:15.246Z,10.875
2018-12-27T21:27:15.469Z,7.412
2018-12-27T21:30:15.388Z,6.100
2018-12-27T21:33:15.208Z,5.887
2018-12-27T21:36:15.561Z,7.975
2018-12-27T21:39:16.444Z,13.763
2018-12-27T21:42:15.394Z,8.125
2018-12-27T21:45:15.545Z,6.362
2018-12-27T21:48:20.591Z,4.463
2018-12-27T21:51:15.771Z,7.338
2018-12-27T21:54:15.027Z,7.600
2018-12-27T21:57:15.148Z,5.775
2018-12-27T22:00:15.065Z,9.938
2018-12-27T22:03:15.081Z,3.962
2018-12-27T22:06:15.080Z,8.887
2018-12-27T22:09:15.777Z,7.287
2018-12-27T22:12:15.648Z,11.475
2018-12-27T22:15:15.433Z,6.963
2018-12-27T22:18:15.382Z,7.562
2018-12-27T22:21:15.643Z,8.025
2018-12-27T22:24:15.568Z,9.838
2018-12-27T22:27:15.689Z,13.062
2018-12-27T22:30:15.410Z,6.037
2018-12-27T22:33:15.177Z,8.250
2018-12-27T22:36:15.825Z,10.562
2018-12-27T22:39:15.738Z,9.850
2018-12-27T22:42:15.557Z,11.038
2018-12-27T22:45:15.781Z,9.137
2018-12-27T22:48:15.567Z,8.338
2018-12-27T22:51:15.339Z,5.000
2018-12-27T22:54:15.243Z,17.513
2018-12-27T22:57:15.179Z,10.713
2018-12-27T23:00:15.879Z,13.688
2018-12-27T23:03:15.318Z,16.325
2018-12-27T23:06:15.225Z,9.637
2018-12-27T23:09:15.005Z,8.738
2018-12-27T23:12:15.214Z,11.088
2018-12-27T23:15:15.063Z,6.725
2018-12-27T23:18:16.194Z,7.850
2018-12-27T23:21:15.530Z,10.275
2018-12-27T23:24:15.672Z,10.087
2018-12-27T23:27:15.572Z,11.863
2018-12-27T23:30:15.868Z,11.812
2018-12-27T23:33:15.890Z,16.988
2018-12-27T23:36:16.098Z,8.488
2018-12-27T23:39:15.595Z,5.950
2018-12-27T23:42:15.866Z,9.950
2018-12-27T23:45:15.927Z,10.150
2018-12-27T23:48:15.746Z,6.037
2018-12-27T23:51:15.488Z,6.500
2018-12-27T23:54:15.589Z,8.525
2018-12-27T23:57:15.594Z,9.512
